createdAt,value
2022-09-09T00:00:18.196Z,99381.94
2022-09-09T00:02:54.095Z,99390.28
2022-09-09T00:05:49.064Z,99386.25
2022-09-09T00:08:21.900Z,99381.03
2022-09-09T00:10:57.425Z,99369.31
2022-09-09T00:13:31.658Z,99388.97
2022-09-09T00:16:26.118Z,99389.94
2022-09-09T00:19:05.357Z,99391.09
2022-09-09T00:21:37.022Z,99389.75
2022-09-09T00:24:26.877Z,99381.47
2022-09-09T00:27:06.378Z,99378.22
2022-09-09T00:29:54.918Z,99381.25
2022-09-09T00:32:23.691Z,99385.84
2022-09-09T00:34:58.197Z,99397.44
2022-09-09T00:37:27.745Z,99394.28
2022-09-09T00:40:01.217Z,99383.53
2022-09-09T00:42:47.902Z,99380.91
2022-09-09T00:45:16.505Z,99391.50
2022-09-09T00:47:55.530Z,99380.03
2022-09-09T00:50:42.270Z,99389.81
2022-09-09T00:53:55.112Z,99389.16
2022-09-09T00:56:30.095Z,99390.06
2022-09-09T00:59:14.269Z,99377.78
2022-09-09T01:01:42.903Z,99368.34
2022-09-09T01:04:17.391Z,99382.44
2022-09-09T01:06:53.713Z,99385.22
2022-09-09T01:09:33.548Z,99377.59
2022-09-09T01:12:16.545Z,99381.88
2022-09-09T01:14:53.194Z,99375.41
2022-09-09T01:17:34.744Z,99391.03
2022-09-09T01:20:41.600Z,99392.94
2022-09-09T01:23:28.410Z,99389.69
2022-09-09T01:26:39.624Z,99389.44
2022-09-09T01:29:14.606Z,99383.66
2022-09-09T01:31:57.419Z,99380.41
2022-09-09T01:34:41.127Z,99357.47
2022-09-09T01:37:11.651Z,99377.06
2022-09-09T01:39:44.448Z,99370.44
2022-09-09T01:42:17.151Z,99368.91
2022-09-09T01:44:45.371Z,99357.59
2022-09-09T01:47:13.281Z,99358.53
2022-09-09T01:50:20.766Z,99363.72
2022-09-09T01:52:53.716Z,99372.84
2022-09-09T01:55:37.170Z,99362.09
2022-09-09T01:58:04.889Z,99356.69
2022-09-09T02:00:36.664Z,99362.00
2022-09-09T02:03:26.393Z,99374.00
2022-09-09T02:06:02.438Z,99364.97
2022-09-09T02:08:42.231Z,99359.69
2022-09-09T02:11:18.800Z,99362.91
2022-09-09T02:13:58.138Z,99349.53
2022-09-09T02:16:38.160Z,99373.34
2022-09-09T02:19:24.951Z,99371.03
2022-09-09T02:22:07.523Z,99374.84
2022-09-09T02:24:39.346Z,99373.56
2022-09-09T02:27:17.732Z,99366.38
2022-09-09T02:29:48.156Z,99372.66
2022-09-09T02:32:25.242Z,99359.72
2022-09-09T02:35:00.474Z,99359.38
2022-09-09T02:37:34.549Z,99361.00
2022-09-09T02:40:08.402Z,99358.56
2022-09-09T02:42:46.690Z,99362.16
2022-09-09T02:45:20.109Z,99356.97
2022-09-09T02:47:56.180Z,99363.91
2022-09-09T02:50:31.975Z,99358.81
2022-09-09T02:53:22.668Z,99359.16
2022-09-09T02:56:03.642Z,99361.38
2022-09-09T02:58:33.400Z,99372.94
2022-09-09T03:01:05.235Z,99368.09
2022-09-09T03:03:33.122Z,99346.94
2022-09-09T03:06:04.053Z,99343.91
2022-09-09T03:08:31.307Z,99347.84
2022-09-09T03:11:02.245Z,99351.88
2022-09-09T03:13:31.860Z,99357.44
2022-09-09T03:15:59.887Z,99347.97
2022-09-09T03:18:29.746Z,99355.00
2022-09-09T03:20:59.208Z,99345.78
2022-09-09T03:23:26.548Z,99340.47
2022-09-09T03:25:55.898Z,99361.63
2022-09-09T03:28:32.421Z,99360.34
2022-09-09T03:31:04.164Z,99366.25
2022-09-09T03:33:37.459Z,99351.69
2022-09-09T03:36:09.357Z,99356.53
2022-09-09T03:38:37.405Z,99364.53
2022-09-09T03:41:07.283Z,99364.31
2022-09-09T03:43:35.043Z,99358.03
2022-09-09T03:46:02.682Z,99364.97
2022-09-09T03:48:30.936Z,99363.13
2022-09-09T03:51:01.880Z,99358.50
2022-09-09T03:53:34.433Z,99363.59
2022-09-09T03:56:04.316Z,99362.31
2022-09-09T03:58:32.274Z,99336.66
2022-09-09T04:01:09.811Z,99347.63
2022-09-09T04:03:38.669Z,99345.78
2022-09-09T04:06:08.626Z,99348.31
2022-09-09T04:08:36.870Z,99349.56
2022-09-09T04:11:07.524Z,99353.41
2022-09-09T04:13:38.714Z,99358.94
2022-09-09T04:16:08.090Z,99362.19
2022-09-09T04:18:37.403Z,99354.22
2022-09-09T04:21:06.285Z,99358.94
2022-09-09T04:23:35.481Z,99363.44
2022-09-09T04:26:03.536Z,99354.66
2022-09-09T04:28:34.153Z,99361.81
2022-09-09T04:31:31.704Z,99368.75
2022-09-09T04:33:58.982Z,99376.00
2022-09-09T04:36:27.191Z,99376.69
2022-09-09T04:38:59.119Z,99371.84
2022-09-09T04:41:26.515Z,99376.53
2022-09-09T04:43:54.853Z,99380.53
2022-09-09T04:46:23.933Z,99364.22
2022-09-09T04:48:53.719Z,99369.97
2022-09-09T04:51:22.235Z,99364.06
2022-09-09T04:53:51.865Z,99370.97
2022-09-09T04:56:20.262Z,99375.50
2022-09-09T04:58:57.175Z,99369.78
2022-09-09T05:01:33.465Z,99383.72
2022-09-09T05:04:04.073Z,99376.50
2022-09-09T05:06:33.600Z,99361.06
2022-09-09T05:09:01.812Z,99373.06
2022-09-09T05:11:33.431Z,99376.22
2022-09-09T05:14:13.197Z,99368.06
2022-09-09T05:16:41.112Z,99376.84
2022-09-09T05:19:09.260Z,99364.28
2022-09-09T05:21:44.834Z,99370.91
2022-09-09T05:24:13.408Z,99364.03
2022-09-09T05:26:41.561Z,99364.69
2022-09-09T05:29:09.462Z,99377.31
2022-09-09T05:31:37.896Z,99364.28
2022-09-09T05:34:09.886Z,99358.59
2022-09-09T05:36:37.176Z,99344.31
2022-09-09T05:39:05.009Z,99357.28
2022-09-09T05:41:34.231Z,99358.91
2022-09-09T05:44:03.403Z,99353.91
2022-09-09T05:46:31.920Z,99368.44
2022-09-09T05:48:59.582Z,99365.44
2022-09-09T05:51:34.054Z,99373.28
2022-09-09T05:54:07.338Z,99363.88
2022-09-09T05:56:38.582Z,99366.66
2022-09-09T05:59:08.303Z,99371.63
2022-09-09T06:01:41.694Z,99360.59
2022-09-09T06:04:14.579Z,99348.00
2022-09-09T06:06:43.116Z,99346.69
2022-09-09T06:09:14.612Z,99352.59
2022-09-09T06:11:44.690Z,99364.78
2022-09-09T06:14:13.335Z,99346.53
2022-09-09T06:16:45.276Z,99363.50
2022-09-09T06:19:21.663Z,99358.81
2022-09-09T06:21:50.264Z,99351.78
2022-09-09T06:24:20.447Z,99349.94
2022-09-09T06:26:47.785Z,99355.75
2022-09-09T06:29:22.086Z,99351.09
2022-09-09T06:31:49.665Z,99350.09
2022-09-09T06:34:21.921Z,99354.63
2022-09-09T06:36:53.289Z,99355.66
2022-09-09T06:39:20.715Z,99333.63
2022-09-09T06:41:48.367Z,99345.91
2022-09-09T06:44:35.560Z,99339.59
2022-09-09T06:47:05.211Z,99332.53
2022-09-09T06:49:34.040Z,99341.47
2022-09-09T06:52:02.998Z,99341.56
2022-09-09T06:54:30.726Z,99332.44
2022-09-09T06:56:58.635Z,99351.78
2022-09-09T06:59:26.677Z,99350.66
2022-09-09T07:01:56.614Z,99343.91
2022-09-09T07:04:26.325Z,99343.16
2022-09-09T07:06:53.833Z,99346.81
2022-09-09T07:09:26.102Z,99338.09
2022-09-09T07:11:54.653Z,99346.09
2022-09-09T07:14:24.908Z,99336.50
2022-09-09T07:16:59.510Z,99335.31
2022-09-09T07:19:28.252Z,99338.13
2022-09-09T07:21:57.095Z,99344.19
2022-09-09T07:24:25.697Z,99332.94
2022-09-09T07:26:53.293Z,99341.31
2022-09-09T07:29:21.498Z,99332.06
2022-09-09T07:31:50.943Z,99328.44
2022-09-09T07:34:23.875Z,99329.19
2022-09-09T07:36:52.457Z,99330.78
2022-09-09T07:39:20.341Z,99331.91
2022-09-09T07:41:52.166Z,99330.63
2022-09-09T07:44:25.974Z,99320.13
2022-09-09T07:47:06.798Z,99331.34
2022-09-09T07:49:38.356Z,99318.41
2022-09-09T07:54:46.277Z,99311.31
2022-09-09T07:57:16.375Z,99303.56
2022-09-09T07:59:43.720Z,99305.41
2022-09-09T08:02:11.197Z,99307.75
2022-09-09T08:04:38.551Z,99304.88
2022-09-09T08:07:07.867Z,99308.44
2022-09-09T08:09:41.828Z,99303.91
2022-09-09T08:12:16.112Z,99315.75
2022-09-09T08:14:43.894Z,99307.56
2022-09-09T08:17:11.008Z,99305.41
2022-09-09T08:19:38.970Z,99300.00
2022-09-09T08:22:14.027Z,99292.66
2022-09-09T08:24:41.927Z,99298.03
2022-09-09T08:27:11.081Z,99296.69
2022-09-09T08:29:39.436Z,99296.94
2022-09-09T08:32:07.454Z,99302.91
2022-09-09T08:34:41.266Z,99303.94
2022-09-09T08:37:13.133Z,99296.56
2022-09-09T08:39:42.125Z,99294.47
2022-09-09T08:42:38.489Z,99284.59
2022-09-09T08:45:21.143Z,99279.97
2022-09-09T08:48:16.551Z,99277.00
2022-09-09T08:50:44.481Z,99259.59
2022-09-09T08:53:26.217Z,99254.16
2022-09-09T08:56:00.496Z,99253.53
2022-09-09T08:58:51.083Z,99255.50
2022-09-09T09:02:21.019Z,99255.66
2022-09-09T09:05:00.134Z,99251.88
2022-09-09T09:08:14.193Z,99247.25
2022-09-09T09:10:49.717Z,99236.72
2022-09-09T09:13:43.640Z,99242.25
2022-09-09T09:16:44.570Z,99232.81
2022-09-09T09:19:17.242Z,99238.59
2022-09-09T09:21:58.872Z,99235.25
2022-09-09T09:25:00.921Z,99244.75
2022-09-09T09:27:41.302Z,99243.66
2022-09-09T09:30:28.510Z,99240.88
2022-09-09T09:33:17.564Z,99240.44
2022-09-09T09:35:45.433Z,99239.03
2022-09-09T09:41:11.648Z,99225.53
2022-09-09T09:43:43.764Z,99233.06
2022-09-09T09:46:25.243Z,99233.66
2022-09-09T09:49:15.080Z,99234.72
2022-09-09T09:51:44.222Z,99231.63
2022-09-09T09:54:28.813Z,99234.28
2022-09-09T09:57:13.918Z,99218.34
2022-09-09T09:59:44.046Z,99218.41
2022-09-09T10:02:27.837Z,99222.25
2022-09-09T10:05:28.012Z,99217.28
2022-09-09T10:08:13.389Z,99213.34
2022-09-09T10:10:50.102Z,99213.94
2022-09-09T10:13:59.419Z,99210.28
2022-09-09T10:16:53.542Z,99205.81
2022-09-09T10:19:34.757Z,99197.44
2022-09-09T10:22:04.978Z,99196.66
2022-09-09T10:24:47.432Z,99211.00
2022-09-09T10:27:14.871Z,99197.53
2022-09-09T10:30:03.544Z,99205.03
2022-09-09T10:32:48.377Z,99197.53
2022-09-09T10:35:27.392Z,99196.84
2022-09-09T10:38:18.822Z,99200.03
2022-09-09T10:40:46.110Z,99199.94
2022-09-09T10:43:25.267Z,99203.22
2022-09-09T10:46:01.578Z,99200.16
2022-09-09T10:48:36.470Z,99202.00
2022-09-09T10:51:12.358Z,99198.50
2022-09-09T10:53:53.290Z,99188.13
2022-09-09T10:56:22.144Z,99203.00
2022-09-09T10:59:17.577Z,99196.22
2022-09-09T11:01:51.009Z,99180.19
2022-09-09T11:04:26.956Z,99174.63
2022-09-09T11:06:56.895Z,99165.22
2022-09-09T11:09:30.435Z,99161.31
2022-09-09T11:11:59.477Z,99173.25
2022-09-09T11:14:37.366Z,99175.22
2022-09-09T11:17:15.870Z,99178.28
2022-09-09T11:19:44.994Z,99183.41
2022-09-09T11:22:27.279Z,99183.63
2022-09-09T11:25:05.018Z,99186.47
2022-09-09T11:28:10.671Z,99161.13
2022-09-09T11:31:07.277Z,99171.13
2022-09-09T11:34:13.386Z,99166.47
2022-09-09T11:36:49.498Z,99162.47
2022-09-09T11:39:32.029Z,99157.72
2022-09-09T11:42:24.819Z,99156.34
2022-09-09T11:44:53.816Z,99150.44
2022-09-09T11:47:32.375Z,99158.47
2022-09-09T11:50:29.086Z,99163.00
2022-09-09T11:53:25.671Z,99161.78
2022-09-09T11:56:05.951Z,99145.41
2022-09-09T11:58:41.663Z,99145.59
2022-09-09T12:01:28.505Z,99142.56
2022-09-09T12:04:18.577Z,99141.59
2022-09-09T12:07:04.197Z,99137.09
2022-09-09T12:09:46.485Z,99137.66
2022-09-09T12:12:13.486Z,99131.31
2022-09-09T12:14:46.541Z,99140.19
2022-09-09T12:17:16.887Z,99136.28
2022-09-09T12:19:44.083Z,99122.38
2022-09-09T12:22:18.783Z,99128.72
2022-09-09T12:25:30.904Z,99130.91
2022-09-09T12:28:21.547Z,99123.63
2022-09-09T12:31:11.395Z,99131.19
2022-09-09T12:33:46.401Z,99121.28
2022-09-09T12:36:18.897Z,99120.03
2022-09-09T12:38:47.408Z,99097.72
2022-09-09T12:41:28.747Z,99102.34
2022-09-09T12:44:07.193Z,99093.94
2022-09-09T12:46:54.178Z,99096.41
2022-09-09T12:49:28.385Z,99096.94
2022-09-09T12:51:58.472Z,99091.47
2022-09-09T12:54:25.958Z,99097.22
2022-09-09T12:56:53.345Z,99085.84
2022-09-09T12:59:36.666Z,99088.41
2022-09-09T13:02:12.764Z,99090.09
2022-09-09T13:04:40.480Z,99080.03
2022-09-09T13:07:11.054Z,99079.88
2022-09-09T13:09:39.055Z,99078.97
2022-09-09T13:12:12.183Z,99066.78
2022-09-09T13:14:39.811Z,99065.56
2022-09-09T13:17:08.468Z,99061.50
2022-09-09T13:19:40.093Z,99054.03
2022-09-09T13:22:15.794Z,99055.28
2022-09-09T13:24:43.826Z,99049.06
2022-09-09T13:27:32.310Z,99057.81
2022-09-09T13:30:00.645Z,99049.47
2022-09-09T13:32:29.273Z,99060.66
2022-09-09T13:35:03.909Z,99061.88
2022-09-09T13:37:37.630Z,99061.78
2022-09-09T13:40:07.717Z,99054.50
2022-09-09T13:42:40.259Z,99041.47
2022-09-09T13:45:17.413Z,99056.16
2022-09-09T13:47:45.087Z,99044.44
2022-09-09T13:50:22.458Z,99051.28
2022-09-09T13:52:57.211Z,99052.59
2022-09-09T13:55:26.170Z,99039.69
2022-09-09T13:57:53.599Z,99055.59
2022-09-09T14:00:21.771Z,99043.81
2022-09-09T14:02:50.006Z,99048.59
2022-09-09T14:05:20.882Z,99047.47
2022-09-09T14:07:52.524Z,99044.97
2022-09-09T14:10:20.983Z,99049.03
2022-09-09T14:12:48.403Z,99052.53
2022-09-09T14:15:16.282Z,99043.09
2022-09-09T14:17:43.720Z,99041.72
2022-09-09T14:20:13.006Z,99041.63
2022-09-09T14:22:40.486Z,99033.03
2022-09-09T14:25:08.096Z,99030.97
2022-09-09T14:27:35.510Z,99031.63
2022-09-09T14:30:03.017Z,99041.19
2022-09-09T14:32:30.313Z,99027.09
2022-09-09T14:34:57.637Z,99021.78
2022-09-09T14:37:25.264Z,99026.88
2022-09-09T14:39:52.633Z,99031.97
2022-09-09T14:42:19.992Z,99025.31
2022-09-09T14:44:47.629Z,99023.75
2022-09-09T14:47:14.749Z,99025.59
2022-09-09T14:49:45.080Z,99024.09
2022-09-09T14:52:14.433Z,99028.38
2022-09-09T14:54:41.620Z,99032.34
2022-09-09T14:57:08.748Z,99024.75
2022-09-09T14:59:36.367Z,99028.91
2022-09-09T15:02:05.342Z,99030.38
2022-09-09T15:04:32.991Z,99040.91
2022-09-09T15:07:00.478Z,99030.13
2022-09-09T15:09:27.978Z,99031.91
2022-09-09T15:11:55.227Z,99024.31
2022-09-09T15:14:25.307Z,99036.69
2022-09-09T15:16:53.203Z,99038.97
2022-09-09T15:19:20.322Z,99045.88
2022-09-09T15:21:47.549Z,99043.03
2022-09-09T15:24:14.826Z,99045.19
2022-09-09T15:26:42.214Z,99042.09
2022-09-09T15:29:09.593Z,99051.94
2022-09-09T15:31:37.048Z,99053.63
2022-09-09T15:34:06.478Z,99053.94
2022-09-09T15:36:36.633Z,99061.88
2022-09-09T15:39:07.161Z,99063.31
2022-09-09T15:41:34.992Z,99058.19
2022-09-09T15:44:02.601Z,99061.53
2022-09-09T15:46:39.984Z,99069.31
2022-09-09T15:49:07.223Z,99063.84
2022-09-09T15:51:43.275Z,99057.56
2022-09-09T15:54:18.039Z,99054.63
2022-09-09T15:56:47.616Z,99053.22
2022-09-09T15:59:15.818Z,99075.84
2022-09-09T16:01:45.083Z,99077.16
2022-09-09T16:04:13.147Z,99078.41
2022-09-09T16:06:40.427Z,99067.75
2022-09-09T16:09:08.902Z,99076.34
2022-09-09T16:11:38.763Z,99076.50
2022-09-09T16:14:07.747Z,99070.34
2022-09-09T16:16:36.461Z,99076.81
2022-09-09T16:19:07.653Z,99084.28
2022-09-09T16:21:36.515Z,99081.09
2022-09-09T16:24:05.649Z,99091.16
2022-09-09T16:26:34.872Z,99071.66
2022-09-09T16:29:03.810Z,99075.34
2022-09-09T16:31:35.095Z,99089.84
2022-09-09T16:34:04.368Z,99098.03
2022-09-09T16:36:35.282Z,99093.09
2022-09-09T16:39:10.215Z,99095.56
2022-09-09T16:41:38.300Z,99087.16
2022-09-09T16:44:07.662Z,99091.66
2022-09-09T16:46:40.912Z,99084.47
2022-09-09T16:49:14.286Z,99081.41
2022-09-09T16:51:48.126Z,99085.47
2022-09-09T16:54:18.090Z,99086.75
2022-09-09T16:56:47.493Z,99093.66
2022-09-09T16:59:17.311Z,99091.34
2022-09-09T17:01:46.903Z,99096.56
2022-09-09T17:04:21.542Z,99094.91
2022-09-09T17:06:51.074Z,99092.06
2022-09-09T17:09:19.485Z,99090.47
2022-09-09T17:11:48.320Z,99089.66
2022-09-09T17:14:19.396Z,99093.66
2022-09-09T17:16:47.177Z,99091.97
2022-09-09T17:19:15.893Z,99099.22
2022-09-09T17:22:06.007Z,99097.72
2022-09-09T17:24:30.774Z,99092.63
2022-09-09T17:26:58.919Z,99105.56
2022-09-09T17:29:26.789Z,99098.47
2022-09-09T17:31:56.038Z,99101.38
2022-09-09T17:34:23.533Z,99110.34
2022-09-09T17:36:51.153Z,99109.66
2022-09-09T17:39:18.326Z,99115.41
2022-09-09T17:41:46.506Z,99105.78
2022-09-09T17:44:13.634Z,99109.50
2022-09-09T17:46:42.791Z,99105.94
2022-09-09T17:49:15.654Z,99122.06
2022-09-09T17:51:43.969Z,99128.88
2022-09-09T17:54:17.384Z,99131.00
2022-09-09T17:56:45.349Z,99136.66
2022-09-09T17:59:14.475Z,99137.44
2022-09-09T18:01:45.211Z,99143.09
2022-09-09T18:04:14.393Z,99133.84
2022-09-09T18:06:44.117Z,99142.72
2022-09-09T18:09:14.967Z,99140.72
2022-09-09T18:11:45.748Z,99139.16
2022-09-09T18:14:17.593Z,99142.41
2022-09-09T18:16:45.693Z,99149.28
2022-09-09T18:19:15.370Z,99151.78
2022-09-09T18:21:44.602Z,99157.03
2022-09-09T18:24:13.760Z,99139.09
2022-09-09T18:26:43.038Z,99153.91
2022-09-09T18:29:12.981Z,99151.53
2022-09-09T18:31:42.497Z,99146.84
2022-09-09T18:34:12.560Z,99145.22
2022-09-09T18:36:48.396Z,99152.50
2022-09-09T18:39:17.969Z,99160.22
2022-09-09T18:41:47.880Z,99158.63
2022-09-09T18:44:21.969Z,99149.44
2022-09-09T18:46:52.626Z,99153.44
2022-09-09T18:49:21.863Z,99159.09
2022-09-09T18:51:49.677Z,99158.31
2022-09-09T18:54:23.028Z,99168.81
2022-09-09T18:56:50.835Z,99168.81
2022-09-09T18:59:20.440Z,99167.16
2022-09-09T19:01:50.533Z,99163.25
2022-09-09T19:04:19.539Z,99168.97
2022-09-09T19:06:48.726Z,99171.88
2022-09-09T19:09:18.755Z,99157.09
2022-09-09T19:11:46.927Z,99161.97
2022-09-09T19:14:16.618Z,99170.47
2022-09-09T19:16:45.448Z,99164.91
2022-09-09T19:19:17.556Z,99173.09
2022-09-09T19:21:45.559Z,99174.34
2022-09-09T19:24:16.484Z,99168.75
2022-09-09T19:26:46.653Z,99168.41
2022-09-09T19:29:22.725Z,99174.44
2022-09-09T19:32:29.422Z,99177.66
2022-09-09T19:34:38.829Z,99178.84
2022-09-09T19:37:05.807Z,99170.81
2022-09-09T19:39:34.631Z,99173.66
2022-09-09T19:42:02.187Z,99165.63
2022-09-09T19:44:29.493Z,99172.09
2022-09-09T19:46:57.354Z,99168.84
2022-09-09T19:49:25.386Z,99149.25
2022-09-09T19:51:52.648Z,99161.69
2022-09-09T19:54:19.688Z,99154.13
2022-09-09T19:56:46.846Z,99148.53
2022-09-09T19:59:15.670Z,99158.19
2022-09-09T20:01:44.881Z,99160.56
2022-09-09T20:04:13.828Z,99159.34
2022-09-09T20:06:45.488Z,99166.28
2022-09-09T20:09:15.691Z,99156.41
2022-09-09T20:11:45.539Z,99165.25
2022-09-09T20:14:13.015Z,99166.94
2022-09-09T20:16:40.338Z,99166.13
2022-09-09T20:19:11.391Z,99168.53
2022-09-09T20:21:42.768Z,99171.03
2022-09-09T20:24:15.195Z,99158.59
2022-09-09T20:26:45.102Z,99171.88
2022-09-09T20:29:16.379Z,99167.88
2022-09-09T20:31:45.074Z,99158.25
2022-09-09T20:34:18.904Z,99163.88
2022-09-09T20:36:47.224Z,99171.91
2022-09-09T20:39:22.561Z,99170.31
2022-09-09T20:41:50.400Z,99153.44
2022-09-09T20:44:25.958Z,99165.88
2022-09-09T20:47:00.192Z,99163.84
2022-09-09T20:49:28.023Z,99155.84
2022-09-09T20:52:01.175Z,99177.03
2022-09-09T20:54:32.355Z,99165.81
2022-09-09T20:57:27.331Z,99170.22
2022-09-09T20:59:54.779Z,99161.00
2022-09-09T21:02:22.032Z,99162.63
2022-09-09T21:04:49.621Z,99168.63
2022-09-09T21:07:19.778Z,99159.03
2022-09-09T21:09:46.997Z,99160.63
2022-09-09T21:12:14.023Z,99154.66
2022-09-09T21:14:41.228Z,99164.72
2022-09-09T21:17:08.398Z,99159.16
2022-09-09T21:19:35.695Z,99158.38
2022-09-09T21:22:03.070Z,99164.84
2022-09-09T21:24:30.151Z,99168.84
2022-09-09T21:26:57.262Z,99178.88
2022-09-09T21:29:24.334Z,99180.88
2022-09-09T21:31:51.501Z,99183.31
2022-09-09T21:34:18.635Z,99177.72
2022-09-09T21:36:45.835Z,99167.28
2022-09-09T21:39:12.988Z,99168.09
2022-09-09T21:41:40.243Z,99158.06
2022-09-09T21:44:09.132Z,99156.91
2022-09-09T21:46:37.601Z,99156.91
2022-09-09T21:49:04.819Z,99154.09
2022-09-09T21:51:31.944Z,99160.94
2022-09-09T21:53:59.091Z,99161.69
2022-09-09T21:56:26.980Z,99159.31
2022-09-09T21:58:59.099Z,99160.88
2022-09-09T22:01:26.671Z,99153.28
2022-09-09T22:03:54.130Z,99144.47
2022-09-09T22:06:21.419Z,99145.25
2022-09-09T22:08:48.648Z,99149.25
2022-09-09T22:11:18.962Z,99142.03
2022-09-09T22:13:46.273Z,99137.22
2022-09-09T22:16:16.858Z,99150.44
2022-09-09T22:18:44.622Z,99145.63
2022-09-09T22:21:17.001Z,99137.59
2022-09-09T22:23:44.333Z,99143.19
2022-09-09T22:26:11.526Z,99133.53
2022-09-09T22:28:39.079Z,99121.50
2022-09-09T22:31:06.703Z,99133.13
2022-09-09T22:33:34.862Z,99132.69
2022-09-09T22:36:02.150Z,99139.88
2022-09-09T22:38:29.467Z,99129.00
2022-09-09T22:40:56.639Z,99130.97
2022-09-09T22:43:23.964Z,99126.94
2022-09-09T22:45:51.233Z,99138.56
2022-09-09T22:48:18.902Z,99133.34
2022-09-09T22:50:47.218Z,99131.72
2022-09-09T22:53:16.406Z,99130.06
2022-09-09T22:55:54.482Z,99129.63
2022-09-09T22:58:22.574Z,99140.34
2022-09-09T23:00:49.601Z,99140.69
2022-09-09T23:03:17.028Z,99134.66
2022-09-09T23:05:53.762Z,99132.63
2022-09-09T23:08:22.924Z,99128.97
2022-09-09T23:10:49.982Z,99109.34
2022-09-09T23:13:17.077Z,99109.31
2022-09-09T23:15:47.067Z,99118.13
2022-09-09T23:18:14.766Z,99109.75
2022-09-09T23:20:43.192Z,99122.44
2022-09-09T23:23:13.402Z,99133.19
2022-09-09T23:25:40.547Z,99127.06
2022-09-09T23:28:07.930Z,99135.44
2022-09-09T23:30:34.974Z,99128.59
2022-09-09T23:33:02.544Z,99123.06
2022-09-09T23:35:29.665Z,99094.97
2022-09-09T23:37:57.679Z,99117.34
2022-09-09T23:40:25.367Z,99105.28
2022-09-09T23:42:55.344Z,99109.19
2022-09-09T23:45:22.446Z,99117.53
2022-09-09T23:47:49.616Z,99107.56
2022-09-09T23:50:17.805Z,99119.94
2022-09-09T23:52:46.345Z,99104.28
2022-09-09T23:55:13.361Z,99122.22
2022-09-09T23:57:40.640Z,99115.38
